Daley Dijks

Jefe de ojeadores - Cambuur
3 Dic 2028
Domingo
Continuar

Personalidad

Adaptabilidad (17) Ambición (8) Controversia (8) Lealtad (13) Presión (5) Profesionalismo (2) Deportividad (12) Temperamento (14)

Perfil

Estilo de dirección Democrático
Licencia Continental B
Determinación 4
Gestión de personas 8
Motivación 9
Disciplina 5
Satisfacción laboral
100%
Fatiga
0%
Cargo Jefe de ojeadores
Salario 32.9K p/s
Contrato 14.03.2030

Rendimiento

Comportamiento Bueno
Efectividad del entrenamiento
21%
Desarrollo de jugadores
35%
Prevención de lesiones
55%
Implementación táctica
20%

Eventos recientes

Asistió a una reunión de captación ahora
Recomendó un objetivo de fichaje ahora
Recomendó un objetivo de fichaje ahora
Asistió a una reunión de captación 7d atrás
Recomendó un objetivo de fichaje 7d atrás
Recomendó un objetivo de fichaje 7d atrás
Recomendó un objetivo de fichaje 7d atrás
Recomendó un objetivo de fichaje 7d atrás

Actualmente siguiendo

64
Jugador Club Estado Habilidad Confianza Observado Última observación Último voto
Isaac Partey Sol de America Activo 108 / 109 66% 1 01.01.2028 -
Samuel Asamoah Racing Activo 104 / 110 66% 1 01.06.2027 Aprobar
Liel Abada Inter Miami CF Activo 131 / 132 62% 1 01.06.2027 -
Max Svensson Corinthians Activo 106 / 108 66% 1 01.01.2027 Aprobar
Pablo Fernández Leiria Activo 110 / 110 67% 1 01.01.2027 Aprobar
Caio Vidal Deportivo Pereira Activo 128 / 129 63% 1 01.01.2027 Aprobar
Enrique Lofolomo Zulte Waregem Activo 111 / 102 40% 1 28.12.2026 -
Tyrhys Dolan Espanyol Activo 124 / 147 40% 4 27.12.2026 -
Maksim Kireev KV Mechelen Activo 108 / 135 40% 2 27.12.2026 -
Mardochée Nzita Charleroi Activo 124 / 106 40% 2 26.12.2026 -
Tibe De Vlieger KAA Gent Activo 108 / 117 40% 1 26.12.2026 -
Ilias Sebaoui Sint-Truiden Activo 117 / 117 40% 3 23.12.2026 -
Taiga Hata Sint-Truiden Activo 125 / 113 40% 2 23.12.2026 -
Bobby Clark Derby County Activo 108 / 124 40% 1 19.12.2026 -
Juan Pablo Gallego Fehervar Activo 112 / 123 40% 1 13.12.2026 -
Tyrese Campbell Sheffield United Activo 143 / 128 40% 1 12.12.2026 -
Tristan Degreef Anderlecht Activo 126 / 126 40% 6 11.12.2026 -
William Balikwisha OH Leuven Activo 102 / 127 40% 2 11.12.2026 -
Marley Aké Zulte Waregem Activo 120 / 129 40% 2 10.12.2026 -
Fredrik Hammar KV Mechelen Activo 117 / 102 40% 1 10.12.2026 -
Eddie Nketiah Crystal Palace Activo 143 / 137 40% 2 09.12.2026 -
Oswin Appollis Orlando Pirates Activo 111 / 101 40% 1 09.12.2026 -
Tyler Goodrham Oxford United Activo 133 / 124 40% 1 06.12.2026 -
Mitchel Bakker Modena Activo 129 / 141 40% 4 04.12.2026 -
Daniel Kyerewaa Reading Activo 128 / 122 40% 1 04.12.2026 -
Elliot Anderson Manchester City Activo 142 / 157 40% 1 02.12.2026 -
Kyriani Sabbe Club Brugge Activo 122 / 111 40% 2 30.11.2026 -
Yassine Khalifi Charleroi Activo 108 / 116 40% 1 27.11.2026 -
Fiete Arp OB Activo 140 / 133 40% 1 25.11.2026 -
Thomas Claes Zulte Waregem Activo 105 / 118 40% 1 25.11.2026 -
Jorg Schreuders Groningen Activo 120 / 137 40% 1 24.11.2026 -
Malick Mbaye Zulte Waregem Activo 117 / 102 40% 3 15.11.2026 -
Thibaud Verlinden OH Leuven Activo 124 / 127 40% 1 14.11.2026 -
Abdelkahar Kadri KAA Gent Activo 112 / 123 40% 1 14.11.2026 -
Dylan Ourega Westerlo Activo 116 / 129 40% 1 09.11.2026 -
Jadon Sancho Manchester United Activo 162 / 135 40% 2 06.11.2026 -
Alex Luna Instituto Activo 136 / 132 40% 1 05.11.2026 -
Tommy St. Jago KV Mechelen Activo 123 / 113 40% 1 04.11.2026 -
Alejandro Piedrahita Deportivo Pereira Activo 114 / 137 40% 1 04.11.2026 -
Jens Petter Hauge Bodo/Glimt Activo 138 / 126 40% 1 03.11.2026 -
Adnane Abid Standard Liege Activo 121 / 117 40% 1 02.11.2026 -
Scott Twine Bristol City Activo 137 / 138 40% 1 02.11.2026 -
Nikolas Sattlberger Racing Genk Activo 107 / 136 40% 1 31.10.2026 -
Timothy Tielemans Mouscron Activo 111 / 113 40% 1 29.10.2026 -
Jan Virgili Club Brugge Activo 123 / 130 40% 2 27.10.2026 -
Sylvester Jasper Standard Liege Activo 103 / 126 40% 1 26.10.2026 -
Mohamed-Ali Cho Hull City Activo 118 / 143 40% 1 21.10.2026 -
Jason Knight Bristol City Activo 126 / 136 40% 1 21.10.2026 -
Dante Rigo Standard Liege Activo 100 / 125 40% 1 20.10.2026 -
Łukasz Łakomy OH Leuven Activo 116 / 108 40% 1 18.10.2026 -
Emi Rodriguez Leon Activo 111 / 103 40% 1 18.10.2026 -
Martín Ojeda Orlando City Activo 158 / 111 40% 1 14.10.2026 -
Pedro Vite Pumas UNAM Activo 143 / 124 40% 1 14.10.2026 -
Talles Magno New York City Activo 115 / 125 40% 1 13.10.2026 -
Marcus Edwards Burnley Activo 150 / 140 40% 1 12.10.2026 -
Yaimar Medina Racing Genk Activo 112 / 109 40% 1 11.10.2026 -
Omar Campos Cruz Azul Activo 147 / 131 40% 1 10.10.2026 -
Antoine Colassin Charleroi Activo 110 / 110 40% 1 09.10.2026 -
Sieben Dewaele Waasland-Beveren Activo 100 / 104 40% 1 08.10.2026 -
Hugo Vetlesen Club Brugge Activo 125 / 134 40% 1 07.10.2026 -
Jearl Margaritha Waasland-Beveren Activo 91 / 101 40% 1 07.10.2026 -
Ibrahim Karamoko Standard Liege Activo 124 / 112 40% 1 06.10.2026 -
Matisse Samoise KAA Gent Activo 109 / 106 40% 1 05.10.2026 -
Djordje Mihailović Toronto FC Activo 146 / 149 40% 1 05.10.2026 -